createdAt,value
2023-01-29T00:01:34.842Z,14.25
2023-01-29T00:03:57.772Z,15.57
2023-01-29T00:06:20.767Z,15.85
2023-01-29T00:08:43.419Z,15.43
2023-01-29T00:11:08.522Z,14.57
2023-01-29T00:13:31.784Z,14.65
2023-01-29T00:15:56.464Z,14.77
2023-01-29T00:18:19.232Z,15.20
2023-01-29T00:20:43.972Z,14.82
2023-01-29T00:23:06.596Z,15.57
2023-01-29T00:25:29.189Z,14.77
2023-01-29T00:27:52.117Z,15.38
2023-01-29T00:30:16.621Z,15.30
2023-01-29T00:32:42.594Z,15.65
2023-01-29T00:35:06.014Z,15.37
2023-01-29T00:37:28.810Z,15.73
2023-01-29T00:39:51.677Z,15.50
2023-01-29T00:42:32.858Z,15.15
2023-01-29T00:44:57.952Z,16.20
2023-01-29T00:47:35.688Z,15.43
2023-01-29T00:49:58.929Z,15.48
2023-01-29T00:52:26.265Z,15.98
2023-01-29T00:54:49.098Z,16.42
2023-01-29T00:57:11.731Z,16.33
2023-01-29T00:59:34.345Z,15.37
2023-01-29T01:02:15.639Z,16.20
2023-01-29T01:04:38.434Z,16.30
2023-01-29T01:07:01.015Z,15.68
2023-01-29T01:09:42.974Z,15.18
2023-01-29T01:12:05.856Z,15.23
2023-01-29T01:14:28.442Z,15.48
2023-01-29T01:16:51.081Z,15.55
2023-01-29T01:19:14.924Z,15.75
2023-01-29T01:21:38.364Z,15.70
2023-01-29T01:24:01.087Z,14.50
2023-01-29T01:26:23.827Z,15.32
2023-01-29T01:28:46.334Z,14.80
2023-01-29T01:31:13.769Z,14.68
2023-01-29T01:33:37.505Z,15.23
2023-01-29T01:36:02.329Z,15.03
2023-01-29T01:38:24.957Z,14.52
2023-01-29T01:40:47.593Z,14.45
2023-01-29T01:43:11.028Z,13.68
2023-01-29T01:45:35.525Z,15.50
2023-01-29T01:48:18.815Z,13.77
2023-01-29T01:51:25.715Z,13.73
2023-01-29T01:53:57.492Z,14.05
2023-01-29T01:56:26.390Z,13.65
2023-01-29T01:58:54.292Z,13.98
2023-01-29T02:01:18.018Z,14.03
2023-01-29T02:04:20.180Z,13.90
2023-01-29T02:07:02.279Z,13.52
2023-01-29T02:09:37.973Z,13.80
2023-01-29T02:12:02.703Z,14.00
2023-01-29T02:14:25.520Z,13.23
2023-01-29T02:16:49.085Z,14.30
2023-01-29T02:19:29.306Z,14.00
2023-01-29T02:22:11.649Z,13.85
2023-01-29T02:25:11.570Z,13.65
2023-01-29T02:27:48.635Z,12.47
2023-01-29T02:30:33.181Z,13.02
2023-01-29T02:33:37.867Z,13.07
2023-01-29T02:36:16.102Z,12.48
2023-01-29T02:39:23.721Z,12.75
2023-01-29T02:41:54.445Z,12.60
2023-01-29T02:44:26.615Z,13.02
2023-01-29T02:47:00.557Z,12.98
2023-01-29T02:49:41.494Z,12.13
2023-01-29T02:52:18.144Z,12.73
2023-01-29T02:54:49.967Z,12.57
2023-01-29T02:57:18.690Z,12.45
2023-01-29T02:59:47.297Z,13.02
2023-01-29T03:02:24.212Z,12.57
2023-01-29T03:04:53.209Z,12.65
2023-01-29T03:07:42.601Z,11.80
2023-01-29T03:10:33.715Z,12.77
2023-01-29T03:13:05.167Z,11.80
2023-01-29T03:15:39.119Z,12.23
2023-01-29T03:18:19.455Z,11.93
2023-01-29T03:20:51.237Z,12.43
2023-01-29T03:23:27.236Z,12.43
2023-01-29T03:26:11.656Z,12.27
2023-01-29T03:28:53.383Z,12.15
2023-01-29T03:31:37.243Z,12.95
2023-01-29T03:34:03.976Z,12.13
2023-01-29T03:36:45.444Z,12.23
2023-01-29T03:39:11.526Z,12.63
2023-01-29T03:41:53.527Z,11.73
2023-01-29T03:44:25.027Z,11.88
2023-01-29T03:47:13.851Z,11.57
2023-01-29T03:50:03.797Z,11.32
2023-01-29T03:52:48.116Z,11.13
2023-01-29T03:55:17.591Z,11.10
2023-01-29T03:57:46.759Z,11.90
2023-01-29T04:00:21.570Z,11.33
2023-01-29T04:03:03.435Z,11.32
2023-01-29T04:05:33.432Z,11.13
2023-01-29T04:08:14.581Z,10.70
2023-01-29T04:10:40.157Z,11.45
2023-01-29T04:13:07.789Z,10.83
2023-01-29T04:15:36.761Z,10.82
2023-01-29T04:17:59.588Z,10.90
2023-01-29T04:20:46.780Z,10.93
2023-01-29T04:23:21.215Z,10.00
2023-01-29T04:25:48.020Z,10.17
2023-01-29T04:28:23.165Z,9.10
2023-01-29T04:30:59.548Z,10.18
2023-01-29T04:33:22.920Z,9.38
2023-01-29T04:35:48.937Z,10.25
2023-01-29T04:38:56.504Z,8.77
2023-01-29T04:41:30.197Z,9.65
2023-01-29T04:44:25.849Z,9.23
2023-01-29T04:46:48.320Z,8.90
2023-01-29T04:49:23.933Z,9.32
2023-01-29T04:52:15.724Z,8.73
2023-01-29T04:54:59.160Z,8.95
2023-01-29T04:57:36.817Z,8.90
2023-01-29T05:00:14.240Z,7.93
2023-01-29T05:02:42.168Z,9.07
2023-01-29T05:05:07.022Z,8.67
2023-01-29T05:07:31.329Z,9.02
2023-01-29T05:09:55.214Z,8.68
2023-01-29T05:12:18.559Z,8.48
2023-01-29T05:14:44.485Z,8.75
2023-01-29T05:17:14.077Z,8.57
2023-01-29T05:22:17.579Z,8.55
2023-01-29T05:24:40.218Z,8.38
2023-01-29T05:27:21.873Z,7.65
2023-01-29T05:29:47.589Z,8.43
2023-01-29T05:32:10.157Z,7.57
2023-01-29T05:34:32.682Z,8.75
2023-01-29T05:36:55.432Z,8.25
2023-01-29T05:39:18.085Z,8.25
2023-01-29T05:41:41.140Z,8.67
2023-01-29T05:44:03.873Z,8.20
2023-01-29T05:46:26.545Z,8.57
2023-01-29T05:48:49.324Z,8.45
2023-01-29T05:51:12.021Z,9.05
2023-01-29T05:53:34.670Z,8.43
2023-01-29T05:55:59.810Z,8.57
2023-01-29T05:58:23.029Z,8.80
2023-01-29T06:00:46.100Z,8.38
2023-01-29T06:03:08.830Z,8.88
2023-01-29T06:05:31.602Z,8.73
2023-01-29T06:07:54.277Z,8.55
2023-01-29T06:10:19.081Z,8.80
2023-01-29T06:12:43.385Z,8.43
2023-01-29T06:15:06.349Z,8.43
2023-01-29T06:17:29.041Z,8.53
2023-01-29T06:19:51.813Z,7.97
2023-01-29T06:22:14.450Z,8.63
2023-01-29T06:24:37.578Z,7.55
2023-01-29T06:27:00.238Z,8.68
2023-01-29T06:29:22.942Z,8.17
2023-01-29T06:31:45.809Z,8.05
2023-01-29T06:34:08.744Z,7.95
2023-01-29T06:36:31.442Z,7.97
2023-01-29T06:38:54.237Z,8.07
2023-01-29T06:41:19.075Z,7.70
2023-01-29T06:43:44.587Z,8.18
2023-01-29T06:46:08.601Z,7.75
2023-01-29T06:48:31.213Z,8.43
2023-01-29T06:50:56.392Z,9.27
2023-01-29T06:53:18.942Z,8.00
2023-01-29T06:55:41.970Z,7.50
2023-01-29T06:58:11.640Z,7.55
2023-01-29T07:00:35.335Z,7.60
2023-01-29T07:02:58.088Z,7.40
2023-01-29T07:05:20.687Z,7.70
2023-01-29T07:07:43.545Z,7.18
2023-01-29T07:10:07.512Z,7.60
2023-01-29T07:12:30.389Z,7.85
2023-01-29T07:14:53.054Z,7.82
2023-01-29T07:17:15.609Z,7.40
2023-01-29T07:19:38.391Z,7.90
2023-01-29T07:22:03.295Z,7.63
2023-01-29T07:24:26.173Z,7.40
2023-01-29T07:26:48.702Z,7.90
2023-01-29T07:29:11.594Z,7.37
2023-01-29T07:31:34.605Z,7.00
2023-01-29T07:33:57.394Z,6.72
2023-01-29T07:36:20.012Z,7.22
2023-01-29T07:38:42.633Z,6.88
2023-01-29T07:41:05.545Z,6.43
2023-01-29T07:43:28.416Z,6.82
2023-01-29T07:45:51.738Z,6.15
2023-01-29T07:48:14.380Z,6.10
2023-01-29T07:50:37.853Z,6.28
2023-01-29T07:53:01.017Z,5.87
2023-01-29T07:55:24.140Z,5.68
2023-01-29T07:57:46.969Z,6.03
2023-01-29T08:00:11.652Z,6.15
2023-01-29T08:02:38.754Z,5.75
2023-01-29T08:05:01.652Z,6.10
2023-01-29T08:07:24.295Z,5.63
2023-01-29T08:09:48.282Z,5.75
2023-01-29T08:12:11.584Z,5.50
2023-01-29T08:14:34.217Z,5.68
2023-01-29T08:16:56.864Z,5.60
2023-01-29T08:19:19.647Z,5.10
2023-01-29T08:21:42.268Z,6.00
2023-01-29T08:24:05.229Z,5.97
2023-01-29T08:26:27.853Z,6.13
2023-01-29T08:28:50.387Z,5.90
2023-01-29T08:31:17.590Z,5.53
2023-01-29T08:33:40.489Z,5.78
2023-01-29T08:36:03.083Z,6.10
2023-01-29T08:38:25.781Z,5.95
2023-01-29T08:40:48.629Z,5.30
2023-01-29T08:43:13.590Z,6.00
2023-01-29T08:45:42.068Z,6.32
2023-01-29T08:48:05.339Z,5.90
2023-01-29T08:50:30.887Z,6.72
2023-01-29T08:52:58.814Z,6.00
2023-01-29T08:55:21.493Z,6.78
2023-01-29T08:57:44.114Z,6.03
2023-01-29T09:00:10.285Z,5.70
2023-01-29T09:02:33.297Z,6.10
2023-01-29T09:04:55.964Z,5.70
2023-01-29T09:07:20.377Z,5.47
2023-01-29T09:09:43.201Z,5.40
2023-01-29T09:12:06.163Z,5.53
2023-01-29T09:14:29.768Z,6.13
2023-01-29T09:16:52.508Z,5.40
2023-01-29T09:19:15.353Z,5.45
2023-01-29T09:21:37.913Z,5.28
2023-01-29T09:24:00.507Z,5.00
2023-01-29T09:26:23.872Z,5.43
2023-01-29T09:28:47.105Z,5.40
2023-01-29T09:31:10.011Z,5.95
2023-01-29T09:33:32.702Z,6.10
2023-01-29T09:35:55.873Z,5.45
2023-01-29T09:38:18.771Z,5.10
2023-01-29T09:40:56.738Z,4.63
2023-01-29T09:43:24.496Z,5.55
2023-01-29T09:46:13.492Z,4.93
2023-01-29T09:48:36.927Z,4.43
2023-01-29T09:51:05.356Z,5.20
2023-01-29T09:53:34.429Z,5.07
2023-01-29T09:56:12.727Z,5.03
2023-01-29T09:58:38.478Z,5.07
2023-01-29T10:01:24.419Z,5.45
2023-01-29T10:04:18.369Z,4.88
2023-01-29T10:06:57.300Z,4.50
2023-01-29T10:09:51.881Z,4.63
2023-01-29T10:12:23.425Z,4.80
2023-01-29T10:14:51.982Z,4.20
2023-01-29T10:18:05.418Z,5.05
2023-01-29T10:20:33.959Z,4.53
2023-01-29T10:23:29.588Z,4.22
2023-01-29T10:25:53.417Z,5.20
2023-01-29T10:28:19.229Z,5.18
2023-01-29T10:30:50.500Z,4.45
2023-01-29T10:33:25.136Z,5.07
2023-01-29T10:35:53.794Z,4.57
2023-01-29T10:38:37.133Z,5.10
2023-01-29T10:41:15.931Z,5.03
2023-01-29T10:44:01.916Z,4.68
2023-01-29T10:46:36.620Z,4.47
2023-01-29T10:49:28.274Z,5.63
2023-01-29T10:51:53.668Z,5.97
2023-01-29T10:54:28.116Z,5.53
2023-01-29T10:57:27.481Z,4.65
2023-01-29T11:00:13.036Z,5.00
2023-01-29T11:02:36.722Z,5.30
2023-01-29T11:04:59.424Z,5.38
2023-01-29T11:07:22.476Z,5.07
2023-01-29T11:10:03.781Z,5.22
2023-01-29T11:12:32.148Z,5.73
2023-01-29T11:15:05.195Z,5.57
2023-01-29T11:17:27.967Z,4.97
2023-01-29T11:19:52.589Z,5.38
2023-01-29T11:22:20.812Z,5.30
2023-01-29T11:24:44.365Z,5.27
2023-01-29T11:27:26.583Z,5.85
2023-01-29T11:29:50.552Z,5.38
2023-01-29T11:32:24.548Z,5.78
2023-01-29T11:35:06.330Z,6.15
2023-01-29T11:37:37.513Z,5.70
2023-01-29T11:40:01.603Z,5.05
2023-01-29T11:42:24.574Z,4.55
2023-01-29T11:44:47.805Z,4.82
2023-01-29T11:47:15.979Z,4.70
2023-01-29T11:49:44.998Z,5.03
2023-01-29T11:52:11.051Z,4.90
2023-01-29T11:54:47.268Z,5.20
2023-01-29T11:57:35.959Z,4.47
2023-01-29T12:00:02.810Z,5.70
2023-01-29T12:02:38.843Z,5.03
2023-01-29T12:05:18.688Z,4.90
2023-01-29T12:07:44.234Z,5.05
2023-01-29T12:10:30.453Z,4.32
2023-01-29T12:13:05.257Z,4.85
2023-01-29T12:15:27.804Z,4.20
2023-01-29T12:18:13.543Z,4.70
2023-01-29T12:20:41.603Z,3.97
2023-01-29T12:23:14.541Z,5.32
2023-01-29T12:25:37.256Z,4.50
2023-01-29T12:28:37.900Z,4.57
2023-01-29T12:31:12.045Z,4.43
2023-01-29T12:33:50.960Z,4.68
2023-01-29T12:36:40.455Z,4.90
2023-01-29T12:39:03.377Z,5.05
2023-01-29T12:41:38.490Z,4.90
2023-01-29T12:44:21.278Z,4.32
2023-01-29T12:46:50.513Z,5.00
2023-01-29T12:49:18.680Z,4.85
2023-01-29T12:51:54.446Z,5.53
2023-01-29T12:54:23.361Z,4.80
2023-01-29T12:56:49.387Z,5.07
2023-01-29T12:59:39.873Z,4.65
2023-01-29T13:02:16.933Z,4.60
2023-01-29T13:04:45.624Z,4.65
2023-01-29T13:07:15.047Z,4.47
2023-01-29T13:09:40.097Z,4.60
2023-01-29T13:12:12.067Z,4.25
2023-01-29T13:14:59.024Z,5.43
2023-01-29T13:17:28.280Z,5.57
2023-01-29T13:19:59.663Z,5.63
2023-01-29T13:22:26.362Z,5.22
2023-01-29T13:25:02.268Z,5.82
2023-01-29T13:27:29.391Z,5.28
2023-01-29T13:29:53.478Z,5.18
2023-01-29T13:32:23.681Z,5.17
2023-01-29T13:34:48.970Z,5.43
2023-01-29T13:37:25.886Z,5.20
2023-01-29T13:39:53.284Z,5.80
2023-01-29T13:42:37.004Z,5.95
2023-01-29T13:45:03.819Z,4.90
2023-01-29T13:47:37.178Z,5.43
2023-01-29T13:50:05.787Z,5.18
2023-01-29T13:52:40.915Z,5.60
2023-01-29T13:55:08.228Z,5.45
2023-01-29T13:57:47.617Z,5.20
2023-01-29T14:00:22.386Z,5.85
2023-01-29T14:02:45.623Z,5.72
2023-01-29T14:05:29.735Z,4.82
2023-01-29T14:07:52.475Z,5.90
2023-01-29T14:10:23.310Z,6.07
2023-01-29T14:12:47.197Z,5.40
2023-01-29T14:15:21.766Z,5.93
2023-01-29T14:18:23.309Z,5.78
2023-01-29T14:20:55.363Z,5.78
2023-01-29T14:23:42.612Z,5.63
2023-01-29T14:26:18.073Z,6.00
2023-01-29T14:29:03.992Z,5.90
2023-01-29T14:31:38.757Z,5.95
2023-01-29T14:34:04.841Z,6.18
2023-01-29T14:36:28.114Z,5.60
2023-01-29T14:38:53.872Z,6.05
2023-01-29T14:41:32.786Z,5.97
2023-01-29T14:44:33.083Z,6.38
2023-01-29T14:46:55.977Z,6.07
2023-01-29T14:49:50.775Z,5.63
2023-01-29T14:52:14.732Z,6.22
2023-01-29T14:54:40.804Z,6.43
2023-01-29T14:57:07.304Z,6.45
2023-01-29T14:59:34.910Z,6.78
2023-01-29T15:02:03.359Z,6.40
2023-01-29T15:04:29.929Z,6.35
2023-01-29T15:07:00.974Z,6.75
2023-01-29T15:09:37.333Z,6.10
2023-01-29T15:12:09.342Z,6.40
2023-01-29T15:14:36.508Z,6.07
2023-01-29T15:17:32.725Z,6.57
2023-01-29T15:19:56.869Z,6.18
2023-01-29T15:22:21.824Z,6.07
2023-01-29T15:24:46.951Z,6.13
2023-01-29T15:27:20.249Z,6.23
2023-01-29T15:29:48.690Z,6.47
2023-01-29T15:32:27.104Z,6.32
2023-01-29T15:34:49.901Z,6.32
2023-01-29T15:37:32.901Z,7.90
2023-01-29T15:39:56.650Z,7.73
2023-01-29T15:42:25.692Z,7.63
2023-01-29T15:44:48.432Z,7.57
2023-01-29T15:47:11.069Z,7.88
2023-01-29T15:52:20.471Z,8.00
2023-01-29T15:54:43.877Z,8.32
2023-01-29T15:57:13.192Z,8.55
2023-01-29T15:59:43.666Z,8.23
2023-01-29T16:02:25.057Z,8.20
2023-01-29T16:04:47.961Z,8.77
2023-01-29T16:07:11.349Z,8.90
2023-01-29T16:09:34.367Z,9.15
2023-01-29T16:11:59.689Z,9.90
2023-01-29T16:14:25.549Z,9.85
2023-01-29T16:16:49.191Z,9.20
2023-01-29T16:19:26.550Z,8.75
2023-01-29T16:22:02.002Z,8.68
2023-01-29T16:24:25.869Z,7.85
2023-01-29T16:26:51.553Z,8.43
2023-01-29T16:29:21.855Z,8.10
2023-01-29T16:31:47.191Z,8.48
2023-01-29T16:34:48.969Z,9.10
2023-01-29T16:37:38.891Z,8.02
2023-01-29T16:40:15.678Z,8.55
2023-01-29T16:42:38.647Z,6.97
2023-01-29T16:45:02.337Z,7.50
2023-01-29T16:47:34.372Z,8.05
2023-01-29T16:50:04.454Z,7.47
2023-01-29T16:52:30.309Z,7.68
2023-01-29T16:54:59.680Z,7.27
2023-01-29T16:57:29.907Z,7.40
2023-01-29T16:59:57.621Z,7.60
2023-01-29T17:02:29.249Z,7.05
2023-01-29T17:04:55.899Z,7.78
2023-01-29T17:07:22.051Z,7.33
2023-01-29T17:09:53.666Z,7.20
2023-01-29T17:12:21.196Z,6.88
2023-01-29T17:14:59.746Z,7.10
2023-01-29T17:17:30.382Z,7.10
2023-01-29T17:19:53.161Z,7.23
2023-01-29T17:22:16.480Z,7.68
2023-01-29T17:24:39.318Z,7.38
2023-01-29T17:27:02.291Z,7.18
2023-01-29T17:29:29.767Z,8.82
2023-01-29T17:31:52.632Z,7.43
2023-01-29T17:34:17.104Z,7.40
2023-01-29T17:36:40.435Z,8.13
2023-01-29T17:39:12.431Z,7.55
2023-01-29T17:41:35.225Z,7.10
2023-01-29T17:43:58.177Z,6.77
2023-01-29T17:46:21.695Z,6.90
2023-01-29T17:48:45.350Z,6.80
2023-01-29T17:51:14.717Z,7.57
2023-01-29T17:53:45.251Z,8.18
2023-01-29T17:56:23.583Z,7.23
2023-01-29T17:58:46.752Z,8.13
2023-01-29T18:01:09.587Z,7.75
2023-01-29T18:03:32.462Z,7.63
2023-01-29T18:05:55.428Z,9.07
2023-01-29T18:08:28.575Z,8.97
2023-01-29T18:10:51.571Z,8.30
2023-01-29T18:13:14.391Z,8.50
2023-01-29T18:15:38.042Z,8.68
2023-01-29T18:18:02.109Z,9.27
2023-01-29T18:20:27.974Z,8.57
2023-01-29T18:22:50.913Z,8.60
2023-01-29T18:25:14.572Z,9.23
2023-01-29T18:27:37.586Z,8.75
2023-01-29T18:30:00.484Z,10.02
2023-01-29T18:32:23.312Z,9.43
2023-01-29T18:34:46.355Z,10.57
2023-01-29T18:37:10.410Z,9.77
2023-01-29T18:39:36.048Z,10.00
2023-01-29T18:41:59.041Z,10.68
2023-01-29T18:44:21.839Z,9.20
2023-01-29T18:46:45.110Z,10.30
2023-01-29T18:49:08.100Z,10.02
2023-01-29T18:51:30.953Z,10.32
2023-01-29T18:53:53.882Z,10.43
2023-01-29T18:56:17.011Z,9.67
2023-01-29T18:58:40.331Z,9.43
2023-01-29T19:01:09.819Z,9.13
2023-01-29T19:03:33.110Z,9.23
2023-01-29T19:06:00.919Z,9.07
2023-01-29T19:08:23.765Z,8.50
2023-01-29T19:10:49.135Z,7.70
2023-01-29T19:13:12.065Z,8.13
2023-01-29T19:15:35.359Z,8.30
2023-01-29T19:17:59.015Z,9.18
2023-01-29T19:20:22.015Z,7.80
2023-01-29T19:22:45.246Z,8.25
2023-01-29T19:25:08.820Z,8.65
2023-01-29T19:27:31.860Z,8.98
2023-01-29T19:29:56.028Z,8.85
2023-01-29T19:32:22.815Z,8.70
2023-01-29T19:34:45.729Z,8.75
2023-01-29T19:37:10.542Z,10.52
2023-01-29T19:39:34.136Z,11.07
2023-01-29T19:41:56.925Z,11.48
2023-01-29T19:44:19.723Z,10.67
2023-01-29T19:46:42.520Z,10.35
2023-01-29T19:49:06.741Z,10.68
2023-01-29T19:51:30.095Z,10.15
2023-01-29T19:53:53.058Z,9.40
2023-01-29T19:56:18.037Z,9.27
2023-01-29T19:58:41.192Z,9.75
2023-01-29T20:01:14.181Z,9.55
2023-01-29T20:03:38.436Z,9.32
2023-01-29T20:06:03.550Z,9.50
2023-01-29T20:08:26.463Z,9.67
2023-01-29T20:10:49.817Z,9.30
2023-01-29T20:13:14.263Z,9.43
2023-01-29T20:15:37.344Z,10.55
2023-01-29T20:18:00.690Z,10.13
2023-01-29T20:20:23.872Z,9.23
2023-01-29T20:22:51.630Z,10.52
2023-01-29T20:25:14.694Z,11.93
2023-01-29T20:27:37.612Z,11.02
2023-01-29T20:30:00.210Z,11.02
2023-01-29T20:32:23.182Z,12.10
2023-01-29T20:34:49.696Z,11.60
2023-01-29T20:37:12.584Z,10.85
2023-01-29T20:39:37.099Z,10.45
2023-01-29T20:42:00.228Z,12.70
2023-01-29T20:44:24.266Z,10.97
2023-01-29T20:46:46.913Z,10.88
2023-01-29T20:49:09.873Z,11.02
2023-01-29T20:51:32.919Z,9.05
2023-01-29T20:53:55.836Z,9.80
2023-01-29T20:56:18.784Z,9.70
2023-01-29T20:58:58.570Z,8.70
2023-01-29T21:01:21.716Z,9.02
2023-01-29T21:03:45.011Z,9.65
2023-01-29T21:06:09.160Z,9.73
2023-01-29T21:08:32.323Z,9.37
2023-01-29T21:10:55.186Z,9.15
2023-01-29T21:13:18.047Z,9.70
2023-01-29T21:15:42.597Z,9.25
2023-01-29T21:18:06.863Z,9.57
2023-01-29T21:20:29.733Z,9.83
2023-01-29T21:22:52.675Z,10.60
2023-01-29T21:25:15.782Z,10.25
2023-01-29T21:27:38.913Z,9.82
2023-01-29T21:30:01.625Z,10.23
2023-01-29T21:32:28.121Z,10.03
2023-01-29T21:34:52.649Z,10.02
2023-01-29T21:37:15.355Z,10.00
2023-01-29T21:39:58.153Z,8.82
2023-01-29T21:42:39.650Z,9.68
2023-01-29T21:45:02.505Z,8.63
2023-01-29T21:47:25.906Z,9.45
2023-01-29T21:49:48.744Z,8.95
2023-01-29T21:52:12.850Z,9.02
2023-01-29T21:54:45.774Z,9.45
2023-01-29T21:57:14.968Z,9.53
2023-01-29T22:02:15.143Z,9.73
2023-01-29T22:04:37.832Z,9.30
2023-01-29T22:07:00.503Z,10.00
2023-01-29T22:09:23.498Z,9.57
2023-01-29T22:11:46.470Z,9.55
2023-01-29T22:14:09.414Z,9.30
2023-01-29T22:16:32.215Z,9.30
2023-01-29T22:18:55.051Z,9.50
2023-01-29T22:21:18.827Z,9.23
2023-01-29T22:23:41.514Z,9.45
2023-01-29T22:26:05.599Z,9.85
2023-01-29T22:28:28.182Z,9.80
2023-01-29T22:30:50.906Z,10.13
2023-01-29T22:33:13.613Z,9.53
2023-01-29T22:35:36.627Z,9.63
2023-01-29T22:38:00.045Z,10.48
2023-01-29T22:40:22.762Z,10.18
2023-01-29T22:42:45.396Z,10.20
2023-01-29T22:45:08.881Z,9.93
2023-01-29T22:47:33.756Z,9.98
2023-01-29T22:49:56.571Z,10.50
2023-01-29T22:52:22.524Z,10.00
2023-01-29T22:54:45.216Z,11.25
2023-01-29T22:57:10.750Z,10.70
2023-01-29T22:59:33.764Z,9.55
2023-01-29T23:01:56.492Z,9.75
2023-01-29T23:04:19.115Z,10.02
2023-01-29T23:06:41.701Z,9.40
2023-01-29T23:09:06.380Z,9.40
2023-01-29T23:11:49.914Z,9.63
2023-01-29T23:14:12.465Z,8.98
2023-01-29T23:16:35.021Z,9.63
2023-01-29T23:18:58.100Z,9.25
2023-01-29T23:21:25.150Z,9.43
2023-01-29T23:23:47.897Z,9.18
2023-01-29T23:26:30.346Z,9.15
2023-01-29T23:28:53.145Z,8.90
2023-01-29T23:31:16.003Z,9.05
2023-01-29T23:33:38.797Z,8.53
2023-01-29T23:36:01.413Z,10.25
2023-01-29T23:38:24.130Z,10.00
2023-01-29T23:40:47.068Z,9.45
2023-01-29T23:43:09.640Z,9.85
2023-01-29T23:45:32.233Z,9.47
2023-01-29T23:47:54.995Z,9.30
2023-01-29T23:50:17.869Z,10.25
2023-01-29T23:52:40.893Z,9.75
2023-01-29T23:55:03.596Z,10.23
2023-01-29T23:57:26.507Z,9.53
2023-01-29T23:59:49.256Z,9.70
